Ana Sayfa
METAR-TAF:

METAR-TAF

Havaalanları :

St. George Municipal Airport

St. George, Utah, Amerika Birleşik Devletleri

Enlem: 37-05N, Boylam: 113-36W, yükseklik: 896 m

Güncel hava durumu gözlemi

Rapor saat 05:56 UTC de 1 saat ve 8 dakika önce yapıldı.
Rüzgar kuzeydan 3 kt
Sıcaklık 8°C
Nem 76%
Basınç 1015 hPa
Görüş mesafesi: 16.1 km
9500 ft yükseklikte çok bulutlu

METAR: KSGU 140556Z AUTO 35003KT 10SM OVC095 08/04 A2997 RMK AO2 SLP146 T00830039 10122 20072 55001

Saat: 00:04 (07:04 UTC)

Tahmin

Rapor saat 05:42 UTC de 1 saat ve 22 dakika önce yapıldı.
Ayın 14'si saat 06 UTC'den ayın 15'si saat 06 UTC'ye kadar geçerli Tahmin
Rüzgar değişken yönden 5 kt
Görüş mesafesi: 10 km
10000 ft yükseklikte parçalı bulutlu
20000 ft yükseklikte parçalı bulutlu

TAF: KSGU 140542Z 1406/1506 VRB05KT P6SM SCT100 SCT200

4.000'den fazla havaalanı için hava durumu gözlemleri ve tahminleri (METAR ve TAF raporları).

Kullanılabilir istasyonlar harita üzerinde sarı ve kırmızı noktalarla gösterilir.

İstasyonun adını görmek için fareyi noktanın üzerinde gezdirin.

Sonrasında hava gözlem ve tahminlerini görmek için tıklayın.

Haritayı değiştirmek için: yaklaştırmak için siyah artı işaretli yeşil düğmeye ve uzaklaştırmak için de eksi işaretli düğmeye hızla tıklayın; bitişik haritalar için yeşil okları kullanın.


METAR-TAF: